createdAt,value
2018-08-04T00:00:13.335Z,21.36
2018-08-04T00:02:42.102Z,21.35
2018-08-04T00:05:11.269Z,21.31
2018-08-04T00:07:40.372Z,21.25
2018-08-04T00:10:15.767Z,21.19
2018-08-04T00:12:45.539Z,21.24
2018-08-04T00:15:14.354Z,21.28
2018-08-04T00:17:43.286Z,21.29
2018-08-04T00:20:12.097Z,21.22
2018-08-04T00:22:40.938Z,21.18
2018-08-04T00:25:09.876Z,21.06
2018-08-04T00:27:38.777Z,21.02
2018-08-04T00:30:11.362Z,21.02
2018-08-04T00:32:40.358Z,20.95
2018-08-04T00:35:09.737Z,20.85
2018-08-04T00:37:38.737Z,20.82
2018-08-04T00:40:09.815Z,20.79
2018-08-04T00:42:38.594Z,20.77
2018-08-04T00:45:07.467Z,20.78
2018-08-04T00:47:36.202Z,20.75
2018-08-04T00:50:05.935Z,20.72
2018-08-04T00:52:34.812Z,20.65
2018-08-04T00:55:03.579Z,20.54
2018-08-04T00:57:32.357Z,20.51
2018-08-04T01:00:01.111Z,20.39
2018-08-04T01:02:30.002Z,20.30
2018-08-04T01:04:58.738Z,20.26
2018-08-04T01:07:27.471Z,20.22
2018-08-04T01:09:59.796Z,20.20
2018-08-04T01:12:28.790Z,20.23
2018-08-04T01:14:57.541Z,20.22
2018-08-04T01:17:26.333Z,20.23
2018-08-04T01:19:55.142Z,20.22
2018-08-04T01:22:23.966Z,20.17
2018-08-04T01:24:52.886Z,20.14
2018-08-04T01:27:21.786Z,20.12
2018-08-04T01:29:50.570Z,20.04
2018-08-04T01:32:19.321Z,20.01
2018-08-04T01:34:48.297Z,19.99
2018-08-04T01:37:17.002Z,19.98
2018-08-04T01:39:45.845Z,19.99
2018-08-04T01:42:14.658Z,20.02
2018-08-04T01:44:43.378Z,19.86
2018-08-04T01:47:12.146Z,19.81
2018-08-04T01:49:40.877Z,19.74
2018-08-04T01:52:09.642Z,19.66
2018-08-04T01:54:38.366Z,19.65
2018-08-04T01:57:07.135Z,19.63
2018-08-04T01:59:35.846Z,19.62
2018-08-04T02:02:04.935Z,19.63
2018-08-04T02:04:33.705Z,19.58
2018-08-04T02:07:02.455Z,19.69
2018-08-04T02:09:31.200Z,19.74
2018-08-04T02:11:59.946Z,19.71
2018-08-04T02:14:28.698Z,19.69
2018-08-04T02:16:57.458Z,19.62
2018-08-04T02:19:26.271Z,19.53
2018-08-04T02:21:55.031Z,19.48
2018-08-04T02:24:23.838Z,19.44
2018-08-04T02:26:52.663Z,19.43
2018-08-04T02:29:21.437Z,19.41
2018-08-04T02:31:50.191Z,19.38
2018-08-04T02:34:18.966Z,19.36
2018-08-04T02:36:47.736Z,19.34
2018-08-04T02:39:16.493Z,19.30
2018-08-04T02:41:45.251Z,19.27
2018-08-04T02:44:14.043Z,19.21
2018-08-04T02:46:42.795Z,19.14
2018-08-04T02:49:11.574Z,19.14
2018-08-04T02:51:40.343Z,19.18
2018-08-04T02:54:09.423Z,19.19
2018-08-04T02:56:38.205Z,19.20
2018-08-04T02:59:07.008Z,19.21
2018-08-04T03:01:35.931Z,19.26
2018-08-04T03:04:04.715Z,19.32
2018-08-04T03:06:33.475Z,19.29
2018-08-04T03:09:02.293Z,19.29
2018-08-04T03:11:31.059Z,19.30
2018-08-04T03:13:59.971Z,19.26
2018-08-04T03:16:28.767Z,19.28
2018-08-04T03:19:00.431Z,19.30
2018-08-04T03:21:29.692Z,19.25
2018-08-04T03:23:58.464Z,19.20
2018-08-04T03:26:27.390Z,19.21
2018-08-04T03:28:56.384Z,19.21
2018-08-04T03:31:25.558Z,19.22
2018-08-04T03:33:54.429Z,19.24
2018-08-04T03:36:23.201Z,19.19
2018-08-04T03:38:52.055Z,19.15
2018-08-04T03:41:20.838Z,19.07
2018-08-04T03:43:49.569Z,19.01
2018-08-04T03:46:18.673Z,19.02
2018-08-04T03:48:47.432Z,19.04
2018-08-04T03:51:16.213Z,19.09
2018-08-04T03:53:45.010Z,19.11
2018-08-04T03:56:13.776Z,19.17
2018-08-04T03:58:42.501Z,19.17
2018-08-04T04:01:11.252Z,19.16
2018-08-04T04:03:40.053Z,19.27
2018-08-04T04:06:08.882Z,19.39
2018-08-04T04:08:37.626Z,19.40
2018-08-04T04:11:06.498Z,19.44
2018-08-04T04:13:35.249Z,19.48
2018-08-04T04:16:04.038Z,19.47
2018-08-04T04:18:32.965Z,19.49
2018-08-04T04:21:01.739Z,19.56
2018-08-04T04:23:30.466Z,19.62
2018-08-04T04:25:59.214Z,19.75
2018-08-04T04:28:27.995Z,19.84
2018-08-04T04:30:56.775Z,19.97
2018-08-04T04:33:25.590Z,20.02
2018-08-04T04:35:54.567Z,20.07
2018-08-04T04:38:23.401Z,20.06
2018-08-04T04:40:52.177Z,20.11
2018-08-04T04:43:20.940Z,20.15
2018-08-04T04:45:49.700Z,20.21
2018-08-04T04:48:18.470Z,20.29
2018-08-04T04:50:47.792Z,20.57
2018-08-04T04:53:16.552Z,21.31
2018-08-04T04:55:45.377Z,22.06
2018-08-04T04:58:14.165Z,22.98
2018-08-04T05:00:43.034Z,24.01
2018-08-04T05:03:11.902Z,24.92
2018-08-04T05:05:41.545Z,25.66
2018-08-04T05:08:10.352Z,26.40
2018-08-04T05:10:39.870Z,26.72
2018-08-04T05:13:08.793Z,26.70
2018-08-04T05:15:37.590Z,26.98
2018-08-04T05:18:06.756Z,27.11
2018-08-04T05:20:35.496Z,27.33
2018-08-04T05:23:04.414Z,27.44
2018-08-04T05:25:33.171Z,27.42
2018-08-04T05:28:02.004Z,27.70
2018-08-04T05:30:30.795Z,27.83
2018-08-04T05:32:59.607Z,27.95
2018-08-04T05:35:28.324Z,27.74
2018-08-04T05:37:57.117Z,27.33
2018-08-04T05:40:26.485Z,26.90
2018-08-04T05:42:55.248Z,26.42
2018-08-04T05:45:24.083Z,25.97
2018-08-04T05:47:52.861Z,25.40
2018-08-04T05:50:21.650Z,25.37
2018-08-04T05:52:50.412Z,25.38
2018-08-04T05:55:19.290Z,25.18
2018-08-04T05:57:48.067Z,24.69
2018-08-04T06:00:17.012Z,24.46
2018-08-04T06:02:46.144Z,24.50
2018-08-04T06:05:14.968Z,24.39
2018-08-04T06:07:43.687Z,24.23
2018-08-04T06:10:12.468Z,24.04
2018-08-04T06:12:41.242Z,24.03
2018-08-04T06:15:10.041Z,24.08
2018-08-04T06:17:38.811Z,23.89
2018-08-04T06:20:07.594Z,23.95
2018-08-04T06:22:36.372Z,23.95
2018-08-04T06:25:05.199Z,23.91
2018-08-04T06:27:36.889Z,23.87
2018-08-04T06:30:08.942Z,23.72
2018-08-04T06:32:37.832Z,23.70
2018-08-04T06:35:06.641Z,23.75
2018-08-04T06:37:35.831Z,23.44
2018-08-04T06:40:05.086Z,23.43
2018-08-04T06:42:33.865Z,23.42
2018-08-04T06:45:02.742Z,23.29
2018-08-04T06:47:31.638Z,23.18
2018-08-04T06:50:00.478Z,23.29
2018-08-04T06:52:29.338Z,23.33
2018-08-04T06:54:58.235Z,23.34
2018-08-04T06:57:27.057Z,23.38
2018-08-04T06:59:55.841Z,23.39
2018-08-04T07:02:24.676Z,23.49
2018-08-04T07:04:53.523Z,23.39
2018-08-04T07:07:22.358Z,23.52
2018-08-04T07:09:51.217Z,23.45
2018-08-04T07:12:20.018Z,23.57
2018-08-04T07:14:48.775Z,23.64
2018-08-04T07:17:18.191Z,23.86
2018-08-04T07:19:46.945Z,23.79
2018-08-04T07:22:15.706Z,23.91
2018-08-04T07:24:44.520Z,23.79
2018-08-04T07:27:13.446Z,23.93
2018-08-04T07:29:42.200Z,24.03
2018-08-04T07:32:10.946Z,24.10
2018-08-04T07:34:39.774Z,24.17
2018-08-04T07:37:08.734Z,24.13
2018-08-04T07:39:37.566Z,24.17
2018-08-04T07:42:06.411Z,24.34
2018-08-04T07:44:35.198Z,24.51
2018-08-04T07:47:03.962Z,24.59
2018-08-04T07:49:32.695Z,24.59
2018-08-04T07:52:01.511Z,24.54
2018-08-04T07:54:30.268Z,24.63
2018-08-04T07:56:59.068Z,24.76
2018-08-04T07:59:27.920Z,24.85
2018-08-04T08:01:56.871Z,24.97
2018-08-04T08:04:25.625Z,24.95
2018-08-04T08:06:54.388Z,24.99
2018-08-04T08:09:23.126Z,24.98
2018-08-04T08:11:51.990Z,25.05
2018-08-04T08:14:20.875Z,24.86
2018-08-04T08:16:49.681Z,25.01
2018-08-04T08:19:18.515Z,25.10
2018-08-04T08:21:47.583Z,25.17
2018-08-04T08:24:16.795Z,25.15
2018-08-04T08:26:45.562Z,25.08
2018-08-04T08:29:14.532Z,24.99
2018-08-04T08:31:51.407Z,24.94
2018-08-04T08:34:21.322Z,24.88
2018-08-04T08:36:50.063Z,24.67
2018-08-04T08:39:18.935Z,24.76
2018-08-04T08:42:03.800Z,24.95
2018-08-04T08:44:34.685Z,24.80
2018-08-04T08:47:04.440Z,24.86
2018-08-04T08:49:33.170Z,24.96
2018-08-04T08:52:01.921Z,25.03
2018-08-04T08:54:30.872Z,25.05
2018-08-04T08:56:59.605Z,25.18
2018-08-04T08:59:28.388Z,25.27
2018-08-04T09:01:57.145Z,25.40
2018-08-04T09:04:25.956Z,25.45
2018-08-04T09:06:54.759Z,25.42
2018-08-04T09:09:23.496Z,25.50
2018-08-04T09:11:52.321Z,25.60
2018-08-04T09:14:21.264Z,25.56
2018-08-04T09:16:50.162Z,25.93
2018-08-04T09:19:19.065Z,26.16
2018-08-04T09:21:47.817Z,26.40
2018-08-04T09:24:16.549Z,26.27
2018-08-04T09:26:45.413Z,26.32
2018-08-04T09:29:14.169Z,25.91
2018-08-04T09:31:43.349Z,25.95
2018-08-04T09:34:12.093Z,25.76
2018-08-04T09:36:40.891Z,26.08
2018-08-04T09:39:11.790Z,26.48
2018-08-04T09:41:41.565Z,26.75
2018-08-04T09:44:11.101Z,26.69
2018-08-04T09:46:41.138Z,26.65
2018-08-04T09:49:09.940Z,26.40
2018-08-04T09:51:39.118Z,26.11
2018-08-04T09:54:07.853Z,26.21
2018-08-04T09:56:36.756Z,26.36
2018-08-04T09:59:05.938Z,26.24
2018-08-04T10:01:38.874Z,26.24
2018-08-04T10:04:08.255Z,26.76
2018-08-04T10:06:37.032Z,27.00
2018-08-04T10:09:08.627Z,27.12
2018-08-04T10:11:37.407Z,26.96
2018-08-04T10:14:06.394Z,26.74
2018-08-04T10:16:35.214Z,26.87
2018-08-04T10:19:03.993Z,26.97
2018-08-04T10:21:32.790Z,26.96
2018-08-04T10:24:01.623Z,27.02
2018-08-04T10:26:30.349Z,27.03
2018-08-04T10:28:59.117Z,26.86
2018-08-04T10:31:27.930Z,26.54
2018-08-04T10:33:56.735Z,26.52
2018-08-04T10:36:25.507Z,26.57
2018-08-04T10:38:54.335Z,26.61
2018-08-04T10:41:23.072Z,26.94
2018-08-04T10:43:51.851Z,26.91
2018-08-04T10:46:20.643Z,27.29
2018-08-04T10:48:49.823Z,27.34
2018-08-04T10:51:18.667Z,27.31
2018-08-04T10:53:47.401Z,27.26
2018-08-04T10:56:16.160Z,27.09
2018-08-04T10:58:44.958Z,27.23
2018-08-04T11:01:13.818Z,27.46
2018-08-04T11:03:42.678Z,27.66
2018-08-04T11:06:11.637Z,27.84
2018-08-04T11:08:40.377Z,27.93
2018-08-04T11:11:09.191Z,27.82
2018-08-04T11:13:57.278Z,27.60
2018-08-04T11:16:26.090Z,27.65
2018-08-04T11:18:54.899Z,27.75
2018-08-04T11:21:23.651Z,27.75
2018-08-04T11:23:52.438Z,27.83
2018-08-04T11:26:21.307Z,27.63
2018-08-04T11:28:50.329Z,27.46
2018-08-04T11:31:19.172Z,27.27
2018-08-04T11:33:47.942Z,27.29
2018-08-04T11:36:16.744Z,27.53
2018-08-04T11:38:56.562Z,27.74
2018-08-04T11:41:25.467Z,27.37
2018-08-04T11:43:54.217Z,27.40
2018-08-04T11:46:22.991Z,27.34
2018-08-04T11:48:51.802Z,27.29
2018-08-04T11:51:20.549Z,27.38
2018-08-04T11:53:49.430Z,27.59
2018-08-04T11:56:18.278Z,27.65
2018-08-04T11:58:47.068Z,27.46
2018-08-04T12:01:15.803Z,27.17
2018-08-04T12:03:44.634Z,27.19
2018-08-04T12:06:13.462Z,27.11
2018-08-04T12:08:42.402Z,27.33
2018-08-04T12:11:11.732Z,27.69
2018-08-04T12:13:40.587Z,27.82
2018-08-04T12:16:09.430Z,27.62
2018-08-04T12:18:38.169Z,27.31
2018-08-04T12:21:07.091Z,27.33
2018-08-04T12:23:35.878Z,27.23
2018-08-04T12:26:04.620Z,27.02
2018-08-04T12:28:33.413Z,27.20
2018-08-04T12:31:02.285Z,27.36
2018-08-04T12:33:31.023Z,27.50
2018-08-04T12:35:59.802Z,27.48
2018-08-04T12:38:28.551Z,27.30
2018-08-04T12:40:57.298Z,27.31
2018-08-04T12:43:26.094Z,27.15
2018-08-04T12:45:54.913Z,26.72
2018-08-04T12:48:26.759Z,26.74
2018-08-04T12:50:55.490Z,26.71
2018-08-04T12:53:24.234Z,26.64
2018-08-04T12:55:53.027Z,26.48
2018-08-04T12:58:21.823Z,26.48
2018-08-04T13:00:50.786Z,26.39
2018-08-04T13:03:19.874Z,26.62
2018-08-04T13:05:48.615Z,26.81
2018-08-04T13:08:17.475Z,26.96
2018-08-04T13:10:46.858Z,27.21
2018-08-04T13:13:15.616Z,27.14
2018-08-04T13:15:44.517Z,26.89
2018-08-04T13:18:13.531Z,26.78
2018-08-04T13:20:42.299Z,26.62
2018-08-04T13:23:11.111Z,26.63
2018-08-04T13:25:40.008Z,26.56
2018-08-04T13:28:08.842Z,26.51
2018-08-04T13:30:38.294Z,26.56
2018-08-04T13:33:07.072Z,26.76
2018-08-04T13:35:35.818Z,26.70
2018-08-04T13:38:04.978Z,26.87
2018-08-04T13:40:34.487Z,26.99
2018-08-04T13:43:03.290Z,26.97
2018-08-04T13:45:32.162Z,27.09
2018-08-04T13:48:01.143Z,26.98
2018-08-04T13:50:30.974Z,26.91
2018-08-04T13:52:59.833Z,26.95
2018-08-04T13:55:29.541Z,26.98
2018-08-04T13:57:58.285Z,26.90
2018-08-04T14:00:27.189Z,26.72
2018-08-04T14:02:55.979Z,26.66
2018-08-04T14:05:24.795Z,26.66
2018-08-04T14:07:53.558Z,26.69
2018-08-04T14:10:22.385Z,26.68
2018-08-04T14:12:51.243Z,26.57
2018-08-04T14:15:20.088Z,26.50
2018-08-04T14:17:48.887Z,26.55
2018-08-04T14:20:17.649Z,26.57
2018-08-04T14:22:46.489Z,26.57
2018-08-04T14:25:15.569Z,26.41
2018-08-04T14:27:44.340Z,26.20
2018-08-04T14:30:13.271Z,26.22
2018-08-04T14:32:42.069Z,26.21
2018-08-04T14:35:10.852Z,26.42
2018-08-04T14:37:40.005Z,26.51
2018-08-04T14:40:08.824Z,26.63
2018-08-04T14:42:37.619Z,26.67
2018-08-04T14:45:06.358Z,26.65
2018-08-04T14:47:35.116Z,26.68
2018-08-04T14:50:03.948Z,26.73
2018-08-04T14:52:33.050Z,26.54
2018-08-04T14:55:01.864Z,26.57
2018-08-04T14:57:30.828Z,26.59
2018-08-04T14:59:59.597Z,26.61
2018-08-04T15:02:28.351Z,26.63
2018-08-04T15:04:57.276Z,26.60
2018-08-04T15:07:26.386Z,26.62
2018-08-04T15:09:55.183Z,26.53
2018-08-04T15:12:24.040Z,26.52
2018-08-04T15:14:52.761Z,26.56
2018-08-04T15:17:21.554Z,26.54
2018-08-04T15:19:50.671Z,26.32
2018-08-04T15:22:19.546Z,26.27
2018-08-04T15:24:48.364Z,26.23
2018-08-04T15:27:17.161Z,26.15
2018-08-04T15:29:45.913Z,26.05
2018-08-04T15:32:14.653Z,26.09
2018-08-04T15:34:46.425Z,25.99
2018-08-04T15:37:15.193Z,25.99
2018-08-04T15:39:44.017Z,26.08
2018-08-04T15:42:12.743Z,26.09
2018-08-04T15:44:41.528Z,26.24
2018-08-04T15:47:10.318Z,26.16
2018-08-04T15:49:39.090Z,26.14
2018-08-04T15:52:07.891Z,26.13
2018-08-04T15:54:36.658Z,26.07
2018-08-04T15:57:05.421Z,25.98
2018-08-04T15:59:34.188Z,26.00
2018-08-04T16:02:02.995Z,26.01
2018-08-04T16:04:31.838Z,26.00
2018-08-04T16:07:00.648Z,25.99
2018-08-04T16:09:29.398Z,25.90
2018-08-04T16:11:58.225Z,25.82
2018-08-04T16:14:27.059Z,25.84
2018-08-04T16:16:55.899Z,25.81
2018-08-04T16:19:25.066Z,25.86
2018-08-04T16:21:53.879Z,25.75
2018-08-04T16:24:22.675Z,25.75
2018-08-04T16:26:51.631Z,25.80
2018-08-04T16:29:20.457Z,25.75
2018-08-04T16:31:49.220Z,25.71
2018-08-04T16:34:18.110Z,25.75
2018-08-04T16:36:46.831Z,25.71
2018-08-04T16:39:15.589Z,25.61
2018-08-04T16:41:44.478Z,25.45
2018-08-04T16:44:13.467Z,25.42
2018-08-04T16:46:42.260Z,25.44
2018-08-04T16:49:11.075Z,25.45
2018-08-04T16:51:39.917Z,25.47
2018-08-04T16:54:08.723Z,25.48
2018-08-04T16:56:37.616Z,25.48
2018-08-04T16:59:06.466Z,25.50
2018-08-04T17:01:35.297Z,25.47
2018-08-04T17:04:04.779Z,25.46
2018-08-04T17:06:33.564Z,25.41
2018-08-04T17:09:02.407Z,25.42
2018-08-04T17:11:31.220Z,25.35
2018-08-04T17:13:59.972Z,25.28
2018-08-04T17:16:28.884Z,25.20
2018-08-04T17:18:57.857Z,25.15
2018-08-04T17:21:26.728Z,25.13
2018-08-04T17:23:56.282Z,25.07
2018-08-04T17:26:25.087Z,25.08
2018-08-04T17:28:53.951Z,25.07
2018-08-04T17:31:23.000Z,25.00
2018-08-04T17:33:51.725Z,24.94
2018-08-04T17:36:20.510Z,24.91
2018-08-04T17:38:49.386Z,24.86
2018-08-04T17:41:18.232Z,24.77
2018-08-04T17:43:47.110Z,24.75
2018-08-04T17:46:15.873Z,24.69
2018-08-04T17:48:44.686Z,24.63
2018-08-04T17:51:13.437Z,24.59
2018-08-04T17:53:42.218Z,24.55
2018-08-04T17:56:10.981Z,24.51
2018-08-04T17:58:39.787Z,24.44
2018-08-04T18:01:08.896Z,24.44
2018-08-04T18:03:38.069Z,24.39
2018-08-04T18:06:07.317Z,24.39
2018-08-04T18:08:36.095Z,24.33
2018-08-04T18:11:05.017Z,24.30
2018-08-04T18:13:33.796Z,24.17
2018-08-04T18:16:02.757Z,24.16
2018-08-04T18:18:31.549Z,24.16
2018-08-04T18:21:00.337Z,24.16
2018-08-04T18:23:29.129Z,24.11
2018-08-04T18:25:57.910Z,24.04
2018-08-04T18:28:26.675Z,23.96
2018-08-04T18:30:55.524Z,23.92
2018-08-04T18:33:24.860Z,23.93
2018-08-04T18:36:01.727Z,23.91
2018-08-04T18:38:30.497Z,23.84
2018-08-04T18:40:59.761Z,23.76
2018-08-04T18:43:28.575Z,23.71
2018-08-04T18:45:57.330Z,23.65
2018-08-04T18:48:26.198Z,23.61
2018-08-04T18:50:55.017Z,23.53
2018-08-04T18:53:23.929Z,23.43
2018-08-04T18:55:52.757Z,23.39
2018-08-04T18:58:21.632Z,23.37
2018-08-04T19:00:50.636Z,23.33
2018-08-04T19:03:19.947Z,23.31
2018-08-04T19:05:49.569Z,23.24
2018-08-04T19:08:18.693Z,23.18
2018-08-04T19:10:48.977Z,23.14
2018-08-04T19:13:17.784Z,23.10
2018-08-04T19:15:46.645Z,23.08
2018-08-04T19:18:15.558Z,23.03
2018-08-04T19:20:45.009Z,23.01
2018-08-04T19:23:13.799Z,23.01
2018-08-04T19:25:43.360Z,23.01
2018-08-04T19:28:12.275Z,22.87
2018-08-04T19:30:41.278Z,22.82
2018-08-04T19:33:10.030Z,22.79
2018-08-04T19:35:38.817Z,22.69
2018-08-04T19:38:07.596Z,22.60
2018-08-04T19:40:36.334Z,22.62
2018-08-04T19:43:05.656Z,22.61
2018-08-04T19:45:34.800Z,22.58
2018-08-04T19:48:05.262Z,22.55
2018-08-04T19:50:34.194Z,22.52
2018-08-04T19:53:02.938Z,22.45
2018-08-04T19:55:31.689Z,22.42
2018-08-04T19:58:00.691Z,22.35
2018-08-04T20:00:29.451Z,22.29
2018-08-04T20:02:58.231Z,22.20
2018-08-04T20:05:26.967Z,22.13
2018-08-04T20:07:55.734Z,22.02
2018-08-04T20:10:24.471Z,21.96
2018-08-04T20:12:53.194Z,21.93
2018-08-04T20:15:22.019Z,21.90
2018-08-04T20:17:50.887Z,21.89
2018-08-04T20:20:19.709Z,21.88
2018-08-04T20:22:48.515Z,21.81
2018-08-04T20:25:17.358Z,21.88
2018-08-04T20:27:46.161Z,21.85
2018-08-04T20:30:14.923Z,21.80
2018-08-04T20:32:44.125Z,21.84
2018-08-04T20:35:13.253Z,21.88
2018-08-04T20:37:42.038Z,21.92
2018-08-04T20:40:10.841Z,21.87
2018-08-04T20:42:39.731Z,21.87
2018-08-04T20:45:08.518Z,21.92
2018-08-04T20:47:37.286Z,22.01
2018-08-04T20:50:06.180Z,22.05
2018-08-04T20:52:34.994Z,22.03
2018-08-04T20:55:03.883Z,22.02
2018-08-04T20:57:32.663Z,22.01
2018-08-04T21:00:01.416Z,21.89
2018-08-04T21:02:30.213Z,21.87
2018-08-04T21:04:59.061Z,21.83
2018-08-04T21:07:27.872Z,21.78
2018-08-04T21:09:56.669Z,21.77
2018-08-04T21:12:25.481Z,21.78
2018-08-04T21:14:54.274Z,21.74
2018-08-04T21:17:23.060Z,21.73
2018-08-04T21:19:51.920Z,21.68
2018-08-04T21:22:20.736Z,21.70
2018-08-04T21:24:49.589Z,21.78
2018-08-04T21:27:18.393Z,21.88
2018-08-04T21:29:47.105Z,21.85
2018-08-04T21:32:15.897Z,21.86
2018-08-04T21:34:44.831Z,21.91
2018-08-04T21:37:13.581Z,21.94
2018-08-04T21:39:42.435Z,21.97
2018-08-04T21:42:11.197Z,21.98
2018-08-04T21:44:39.978Z,21.97
2018-08-04T21:49:36.446Z,21.91
2018-08-04T21:52:05.211Z,21.89
2018-08-04T21:54:33.932Z,21.88
2018-08-04T21:57:02.722Z,21.87
2018-08-04T21:59:31.525Z,21.83
2018-08-04T22:02:00.444Z,21.83
2018-08-04T22:04:29.351Z,21.80
2018-08-04T22:08:07.877Z,21.78
2018-08-04T22:10:36.666Z,21.70
2018-08-04T22:13:05.746Z,21.66
2018-08-04T22:15:35.028Z,21.64
2018-08-04T22:18:03.830Z,21.66
2018-08-04T22:20:32.820Z,21.65
2018-08-04T22:23:01.560Z,21.67
2018-08-04T22:25:31.049Z,21.63
2018-08-04T22:28:00.246Z,21.59
2018-08-04T22:30:29.406Z,21.51
2018-08-04T22:32:58.585Z,21.46
2018-08-04T22:35:27.390Z,21.39
2018-08-04T22:37:56.209Z,21.37
2018-08-04T22:40:24.993Z,21.33
2018-08-04T22:42:53.790Z,21.30
2018-08-04T22:45:46.590Z,21.29
2018-08-04T22:48:15.362Z,21.22
2018-08-04T22:50:44.126Z,21.17
2018-08-04T22:53:12.886Z,21.12
2018-08-04T22:55:42.362Z,21.04
2018-08-04T22:58:11.618Z,21.06
2018-08-04T23:00:41.641Z,21.01
2018-08-04T23:03:11.343Z,20.94
2018-08-04T23:05:40.227Z,20.92
2018-08-04T23:08:09.551Z,20.92
2018-08-04T23:10:39.205Z,20.96
2018-08-04T23:13:08.868Z,20.95
2018-08-04T23:15:37.697Z,20.88
2018-08-04T23:18:06.618Z,20.81
2018-08-04T23:20:35.434Z,20.73
2018-08-04T23:23:04.198Z,20.66
2018-08-04T23:25:32.988Z,20.70
2018-08-04T23:28:02.077Z,20.70
2018-08-04T23:30:30.874Z,20.74
2018-08-04T23:32:59.665Z,20.75
2018-08-04T23:35:28.782Z,20.72
2018-08-04T23:37:57.549Z,20.64
2018-08-04T23:40:26.318Z,20.62
2018-08-04T23:42:55.200Z,20.62
2018-08-04T23:45:23.967Z,20.61
2018-08-04T23:47:52.790Z,20.55
2018-08-04T23:50:21.578Z,20.49
2018-08-04T23:52:50.400Z,20.48
2018-08-04T23:55:19.230Z,20.47
2018-08-04T23:57:47.990Z,20.41
